Terminal Aerodrome Forecast
Issued by NWS

Current Version | Previous Version | Text Only | Print | Product List | Glossary On
Versions: 1 2 3 4 5 6 7 8 9 10 11 12 13 14 15 16 17 18 19 20 21 22 23 24 25 26
000
FTUS42 KKEY 262331
TAFMTH
TAF
KMTH 262331Z 2700/2724 29006KT P6SM FEW090
     FM270600 33008KT P6SM VCSH SCT020
     FM271000 02010KT P6SM OVC020
     FM271600 36010KT P6SM BKN030=

USA.gov is the U.S. government's official web portal to all federal, state and local government web resources and services.